»·PEaware :: N648XT KCRQ-KSNA

N648XT :: KCRQ-KSNA

FLIGHT INFORMATION

Flight Status: Arrived
Operator: Privately registered:
United States
More flights under this callsign
Pilot: Sanjiv Singh (4490)
Aircraft: CESSNA 172 SKYHAWK
(C172)
More flights by this aircraft type
Origin: KCRQ McClellan-Palomar
United States
Destination: KSNA John Wayne-Orange Co
United States
More flights between these airports :: More routes between these airports
Route: +OCN V23 SLI
File this flight plan on PilotEdge
Remarks: TEC route SANN3
Altitude:
(Current/Filed)
6,000ft
Speed:
(Current/Filed)
100kts
Departed: 05-Jan-17 10:22 AM
Arrived: 05-Jan-17 11:29 AM
Distance/Time
Traveled:
44nm/1:07
Distance/Time
To Go:
Arrived

Flight Plot

Page will automatically refresh every two minutes.


Map Options




Map Legend


Flown Route
Filed Route
Departure Airport
Arrival Airport
Navaid (VOR, NDB)
Fix

Horizontal Profiles

Position Reports

Time Latitude Longitude Heading Altitude Ground
Speed
05-Jan-17 09:52 33.127233 -117.278519 346 309ft 0kts
05-Jan-17 09:53 33.127233 -117.278519 346 309ft 0kts
05-Jan-17 09:54 33.127233 -117.278519 346 309ft 0kts
05-Jan-17 09:55 33.127233 -117.278519 346 309ft 0kts
05-Jan-17 09:56 33.127280 -117.278388 254 309ft 0kts
05-Jan-17 09:57 33.127280 -117.278388 254 309ft 0kts
05-Jan-17 09:58 33.127280 -117.278388 254 309ft 0kts
05-Jan-17 09:59 33.127280 -117.278390 253 309ft 0kts
05-Jan-17 10:00 33.127277 -117.278400 247 309ft 0kts
05-Jan-17 10:01 33.127277 -117.278400 247 309ft 0kts
05-Jan-17 10:02 33.127277 -117.278400 247 309ft 0kts
05-Jan-17 10:03 33.127277 -117.278400 247 309ft 0kts
05-Jan-17 10:04 33.127277 -117.278400 247 309ft 0kts
05-Jan-17 10:05 33.127277 -117.278400 247 309ft 0kts
05-Jan-17 10:06 33.127277 -117.278400 247 309ft 0kts
05-Jan-17 10:07 33.127277 -117.278400 247 309ft 0kts
05-Jan-17 10:08 33.127277 -117.278400 247 309ft 0kts
05-Jan-17 10:09 33.127277 -117.278400 247 309ft 0kts
05-Jan-17 10:10 33.127277 -117.278400 247 309ft 0kts
05-Jan-17 10:11 33.127277 -117.278400 247 309ft 0kts
05-Jan-17 10:12 33.127534 -117.274785 0 306ft 0kts
05-Jan-17 10:13 33.127534 -117.274786 258 306ft 0kts
05-Jan-17 10:14 33.127534 -117.274786 258 306ft 0kts
05-Jan-17 10:15 33.127540 -117.274861 301 307ft 6kts
05-Jan-17 10:16 33.128150 -117.274939 68 308ft 10kts
05-Jan-17 10:17 33.128558 -117.272076 315 298ft 0kts
05-Jan-17 10:18 33.128597 -117.272143 292 299ft 9kts
05-Jan-17 10:19 33.128831 -117.272439 333 301ft 0kts
05-Jan-17 10:20 33.128830 -117.272439 333 301ft 0kts
05-Jan-17 10:21 33.129457 -117.272713 259 304ft 9kts
05-Jan-17 10:22 33.127253 -117.294347 269 954ft 85kts
05-Jan-17 10:23 33.125480 -117.320881 261 1968ft 84kts
05-Jan-17 10:24 33.124547 -117.348145 261 2916ft 85kts
05-Jan-17 10:25 33.138984 -117.367388 352 3740ft 99kts
05-Jan-17 10:26 33.163104 -117.376099 343 4575ft 97kts
05-Jan-17 10:27 33.186095 -117.387512 336 5312ft 103kts
05-Jan-17 10:28 33.208598 -117.399772 341 5898ft 92kts
05-Jan-17 10:29 33.228698 -117.410858 340 6035ft 97kts
05-Jan-17 10:30 33.246770 -117.429434 315 6035ft 102kts
05-Jan-17 10:31 33.261888 -117.450905 321 6035ft 99kts
05-Jan-17 10:32 33.277566 -117.467367 323 6036ft 98kts
05-Jan-17 10:33 33.295430 -117.485865 323 6033ft 89kts
05-Jan-17 10:34 33.311043 -117.502179 323 6036ft 90kts
05-Jan-17 10:35 33.326057 -117.520048 320 6036ft 92kts
05-Jan-17 10:36 33.343374 -117.540424 321 6036ft 92kts
05-Jan-17 10:37 33.361283 -117.561328 321 6036ft 92kts
05-Jan-17 10:38 33.379260 -117.582204 321 6036ft 92kts
05-Jan-17 10:39 33.394932 -117.600353 321 6036ft 92kts
05-Jan-17 10:40 33.410145 -117.617980 322 6034ft 93kts
05-Jan-17 10:41 33.419778 -117.629136 322 6034ft 93kts
05-Jan-17 10:42 33.432055 -117.643351 323 6033ft 94kts
05-Jan-17 10:43 33.449572 -117.663929 323 6030ft 95kts
05-Jan-17 10:44 33.466454 -117.683847 308 6023ft 107kts
05-Jan-17 10:45 33.481055 -117.701406 307 6029ft 119kts
05-Jan-17 10:46 33.503135 -117.728108 306 6023ft 122kts
05-Jan-17 10:47 33.526236 -117.755010 307 6021ft 120kts
05-Jan-17 10:48 33.542973 -117.773798 307 6020ft 119kts
05-Jan-17 10:49 33.565962 -117.799932 306 6019ft 117kts
05-Jan-17 10:50 33.588244 -117.825932 309 6010ft 122kts
05-Jan-17 10:51 33.609037 -117.850132 309 6009ft 123kts
05-Jan-17 10:52 33.630476 -117.874756 309 6010ft 123kts
05-Jan-17 10:53 33.653838 -117.901732 309 6011ft 123kts
05-Jan-17 10:54 33.671193 -117.919693 314 5581ft 127kts
05-Jan-17 10:55 33.695286 -117.945549 319 4650ft 124kts
05-Jan-17 10:56 33.716555 -117.943308 24 4098ft 114kts
05-Jan-17 10:57 33.734698 -117.932162 33 3510ft 112kts
05-Jan-17 10:58 33.753492 -117.919487 33 2810ft 109kts
05-Jan-17 10:59 33.772119 -117.906236 33 2091ft 106kts
05-Jan-17 11:00 33.789150 -117.893715 33 2003ft 103kts
05-Jan-17 11:01 33.808015 -117.879895 33 2335ft 92kts
05-Jan-17 11:02 33.824611 -117.868675 33 3043ft 94kts
05-Jan-17 11:03 33.848019 -117.852863 33 3037ft 114kts
05-Jan-17 11:04 33.872877 -117.835633 45 3029ft 107kts
05-Jan-17 11:05 33.877374 -117.804381 81 3036ft 101kts
05-Jan-17 11:06 33.869760 -117.778363 174 3035ft 111kts
05-Jan-17 11:07 33.846295 -117.780960 182 2319ft 106kts
05-Jan-17 11:08 33.826059 -117.783071 182 2002ft 91kts
05-Jan-17 11:09 33.805173 -117.785206 182 2007ft 110kts
05-Jan-17 11:10 33.781306 -117.787542 182 2007ft 111kts
05-Jan-17 11:11 33.768065 -117.802107 279 2312ft 108kts
05-Jan-17 11:12 33.783165 -117.812754 356 2951ft 99kts
05-Jan-17 11:13 33.800986 -117.815235 355 3058ft 118kts
05-Jan-17 11:14 33.828143 -117.819107 356 3048ft 120kts
05-Jan-17 11:15 33.849414 -117.807249 35 3046ft 113kts
05-Jan-17 11:16 33.873191 -117.790406 34 3044ft 111kts
05-Jan-17 11:17 33.881226 -117.757341 85 3044ft 104kts
05-Jan-17 11:18 33.865104 -117.748456 210 3046ft 118kts
05-Jan-17 11:19 33.836545 -117.767626 205 3048ft 115kts
05-Jan-17 11:20 33.811010 -117.784314 203 2875ft 113kts
05-Jan-17 11:21 33.791888 -117.796352 203 2495ft 111kts
05-Jan-17 11:22 33.769645 -117.810269 204 2022ft 112kts
05-Jan-17 11:23 33.749147 -117.823189 205 1569ft 110kts
05-Jan-17 11:24 33.730404 -117.834406 203 1163ft 107kts
05-Jan-17 11:25 33.714691 -117.844794 202 937ft 74kts
05-Jan-17 11:26 33.701147 -117.852900 199 609ft 76kts
05-Jan-17 11:27 33.688450 -117.860889 202 268ft 60kts
05-Jan-17 11:28 33.678381 -117.867120 207 60ft 41kts
05-Jan-17 11:29 33.674347 -117.868457 156 60ft 0kts
05-Jan-17 11:30 33.674289 -117.868422 149 60ft 1kts
05-Jan-17 11:31 33.674253 -117.868390 141 60ft 0kts
05-Jan-17 11:32 33.674040 -117.868049 116 60ft 10kts
05-Jan-17 11:33 33.672180 -117.867238 143 60ft 8kts

Navigation Log

Ident Type
1. KCRQ Airport
2. OCN Navaid
3. KELPS Fix
4. DANAH Fix
5. KRAUZ Fix
6. BALBO Fix
7. MIDDS Fix
8. SLI Navaid
9. KSNA Airport